< < Back
Terminal Aerodrome Forecast


Current Version              Previous Versions:   1  2  3  4  5  6  7  8  9  

Terminal Aerodrome Forecast

968
FTUS42 KCAE 310500
TAFAGS
TAF
KAGS 310526Z 3106/0106 VRB03KT P6SM SCT050
      TEMPO 3109/3112 4SM BR
     FM312000 28005KT P6SM BKN050
     FM010400 30010KT P6SM BKN050=

Latest METAR

899
SAUS70 KWBC 311000 RRF
MTRAGS
METAR KAGS 310953Z AUTO 00000KT 1 1/2SM BR CLR 04/03 A2991 RMK AO2
SLP128 T00390033


USA.gov is the U.S. government's official web portal to all federal, state and local government web resources and services.